Latest Coastal Weather Observations for Devonport Airport

IDT60701

Issued at 12:52 pm EDT Tuesday 2 March 2021 (issued every 10 minutes, with the page automatically refreshed every 10 minutes)

About coastal observations | Map of coastal stations | Coastal observations for TAS | Marine services | Other Formats
Station Details ID: 091126 Name: DEVONPORT AIRPORT Lat: -41.17 Lon: 146.43 Height: 8.0 m
Data from the previous 72 hours. | See also: Recent months at Devonport Airport
Date/Time
EDT
Wind Sea
Height
m
Swell Vis
km
Cloud Weather Temp
°C
Press
MSL
hPa
Rain since
9am
mm
Dir  Spd
kts
Gust
kts
Height
m
Period
s
Dir
02/12:30pm SW 13 18 - - - - 10 - - 17.5 1014.5 0.0
02/12:00pm SSW 12 19 - - - - 10 - - 17.0 1014.4 0.0
02/11:30am S 12 20 - - - - 10 Partly cloudy - 16.9 1014.4 0.0
02/11:00am S 14 20 - - - - 10 - - 16.0 1014.2 0.0
02/10:30am SSW 14 22 - - - - 10 Partly cloudy - 15.3 1014.0 0.0
02/10:00am SW 13 18 - - - - 10 - - 15.1 1014.0 0.0
02/09:30am SW 13 17 - - - - 10 - - 14.1 1013.7 0.0
02/09:00am SW 11 14 - - - - 10 - - 13.7 1013.6 0.0
02/08:30am WSW 10 12 - - - - 10 - - 12.6 1013.1 0.0
02/08:00am SW 11 14 - - - - 10 - - 11.6 1012.6 0.0
02/07:30am WSW 8 10 - - - - 10 - - 9.3 1012.4 0.0
02/07:00am WSW 12 15 - - - - 10 - - 9.6 1012.1 0.0
02/06:30am W 12 15 - - - - 10 - - 9.4 1011.6 0.0
02/06:00am W 12 15 - - - - 10 - - 9.6 1011.3 0.0
02/05:30am WSW 12 15 - - - - 10 - - 10.1 1011.0 0.0
02/05:00am WSW 10 13 - - - - 10 - - 9.9 1010.8 0.0
02/04:30am W 11 13 - - - - 10 - - 9.8 1010.8 0.0
02/04:00am W 11 14 - - - - 10 - - 10.2 1010.6 0.0
02/03:30am WSW 9 12 - - - - 10 - - 10.0 1010.4 0.0
02/03:00am WSW 13 17 - - - - 10 - - 10.8 1009.9 0.0
02/02:30am WSW 15 19 - - - - 10 - - 10.9 1010.0 0.0
02/02:00am WSW 15 19 - - - - 10 - - 11.1 1009.5 0.0
02/01:30am W 18 22 - - - - 10 - - 11.1 1009.9 0.0
02/01:21am W 15 22 - - - - 10 - - 11.4 1009.7 0.0
02/01:00am WSW 12 19 - - - - 10 - - 11.2 1010.1 0.0
02/12:30am SW 10 21 - - - - 10 - - 10.9 1010.0 0.0
02/12:11am W 14 19 - - - - 10 - - 9.6 1009.0 0.0
02/12:00am WSW 9 16 - - - - 10 - - 10.3 1009.7 0.0
 
Date/Time
EDT
Wind Sea
Height
m
Swell Vis
km
Cloud Weather Temp
°C
Press
MSL
hPa
Rain since
9am
mm
Dir  Spd
kts
Gust
kts
Height
m
Period
s
Dir
01/11:45pm W 17 21 - - - - 10 Partly cloudy - 10.7 1008.7 0.0
01/11:30pm WSW 6 11 - - - - 10 Partly cloudy - 10.1 1009.7 0.0
01/11:00pm W 18 24 - - - - 10 - - 11.0 1008.7 0.0
01/10:30pm WSW 16 23 - - - - 10 - - 11.1 1008.9 0.0
01/10:00pm WSW 17 22 - - - - 10 - - 11.8 1009.0 0.0
01/09:30pm WSW 16 26 - - - - 10 - - 11.4 1008.4 0.0
01/09:17pm WSW 17 27 - - - - 10 - - 11.9 1007.8 0.0
01/09:00pm WSW 12 16 - - - - 10 - - 11.8 1007.8 0.0
01/08:30pm SW 14 21 - - - - 10 - - 12.8 1007.3 0.0
01/08:00pm SW 15 21 - - - - 10 - - 12.8 1006.4 0.0
01/07:36pm WSW 17 29 - - - - 10 Partly cloudy - 13.3 1005.8 0.0
01/07:30pm WSW 16 25 - - - - 10 Partly cloudy - 13.2 1005.8 0.0
01/07:00pm SW 17 31 - - - - 10 - - 14.5 1005.4 0.0
01/06:36pm WSW 23 35 - - - - 10 - - 14.6 1004.9 0.0
01/06:30pm WSW 23 31 - - - - 10 - - 14.6 1004.8 0.0
01/06:00pm WSW 25 35 - - - - 10 Mostly clear - 14.8 1004.7 0.0
01/05:30pm WSW 25 36 - - - - 10 - - 16.4 1004.6 0.0
01/05:00pm WSW 24 34 - - - - 10 Partly cloudy - 16.8 1004.6 0.0
01/04:30pm WSW 29 41 - - - - 10 Partly cloudy - 16.9 1004.5 0.0
01/04:02pm WSW 23 33 - - - - 10 Partly cloudy - 18.2 1004.3 0.0
01/04:00pm WSW 23 31 - - - - 10 Partly cloudy - 18.2 1004.3 0.0
01/03:55pm WSW 23 33 - - - - 10 Partly cloudy - 19.2 1004.2 0.0
01/03:30pm WSW 22 30 - - - - 10 Partly cloudy - 19.1 1004.4 0.0
01/03:28pm W 22 30 - - - - 10 Partly cloudy - 18.1 1004.4 0.0
01/03:00pm WNW 24 31 - - - - 10 Cloudy Showers 17.5 1004.4 0.0
01/02:30pm WNW 27 34 - - - - 8 Partly cloudy - 17.8 1004.5 0.0
01/02:00pm NW 23 32 - - - - 10 Partly cloudy - 19.0 1004.5 0.0
01/01:30pm NW 20 25 - - - - 10 Partly cloudy - 20.8 1005.2 0.0
01/01:00pm NW 18 22 - - - - 10 Partly cloudy - 20.6 1005.6 0.0
01/12:30pm NW 15 21 - - - - 10 Partly cloudy - 19.9 1006.0 0.0
01/12:00pm NW 15 18 - - - - 10 Cloudy - 18.9 1006.5 0.0
01/11:30am WNW 15 18 - - - - 10 Cloudy - 19.3 1006.9 0.0
01/11:00am WNW 16 19 - - - - 10 Cloudy - 18.8 1007.1 0.0
01/10:30am NW 12 15 - - - - 10 Partly cloudy - 18.4 1007.2 0.0
01/10:00am WNW 11 13 - - - - 10 Partly cloudy - 18.6 1007.4 0.0
01/09:30am WNW 9 12 - - - - 10 - - 18.3 1007.5 0.0
01/09:00am WNW 8 11 - - - - 10 Partly cloudy - 17.7 1007.6 0.0
01/08:30am NW 4 6 - - - - 10 Partly cloudy - 17.1 1007.6 0.0
01/08:00am CALM 0 0 - - - - 10 Partly cloudy - 16.4 1007.8 0.0
01/07:30am CALM 0 0 - - - - 10 Partly cloudy - 15.8 1007.8 0.0
01/07:00am CALM 0 0 - - - - 10 Partly cloudy - 15.7 1007.9 0.0
01/06:30am CALM 0 0 - - - - 10 Cloudy - 15.7 1007.8 0.0
01/06:00am S 3 4 - - - - 10 Cloudy - 15.5 1007.8 0.0
01/05:30am S 4 5 - - - - 10 Partly cloudy - 15.2 1007.9 0.0
01/05:00am SSW 4 5 - - - - 10 Partly cloudy - 15.1 1008.1 0.0
01/04:37am SW 3 4 - - - - 10 Partly cloudy - 15.7 1008.2 0.0
01/04:30am SW 4 5 - - - - 10 Partly cloudy - 16.3 1008.2 0.0
01/04:00am NW 8 10 - - - - 10 Partly cloudy - 17.1 1008.3 0.0
01/03:40am NW 7 9 - - - - 10 Partly cloudy - 17.2 1008.6 0.0
01/03:30am NW 8 10 - - - - 10 Partly cloudy - 17.3 1008.7 0.0
01/03:00am NW 9 11 - - - - 10 Cloudy - 17.3 1009.0 0.0
01/02:30am NNW 10 12 - - - - 10 Partly cloudy - 17.4 1009.3 0.0
01/02:00am NNW 10 12 - - - - 10 Partly cloudy - 17.3 1009.4 0.0
01/01:30am NW 10 12 - - - - 10 Partly cloudy - 17.5 1009.6 0.0
01/01:26am NW 9 11 - - - - 10 Partly cloudy - 17.5 1009.7 0.0
01/01:00am NNW 9 11 - - - - 10 Partly cloudy - 17.4 1009.9 0.0
01/12:48am NNW 7 9 - - - - 10 Partly cloudy - 17.3 1009.9 0.0
01/12:30am NNW 6 7 - - - - 10 Partly cloudy - 17.2 1010.1 0.0
01/12:00am NW 5 6 - - - - 10 Cloudy - 17.0 1010.2 0.0
 
Date/Time
EDT
Wind Sea
Height
m
Swell Vis
km
Cloud Weather Temp
°C
Press
MSL
hPa
Rain since
9am
mm
Dir  Spd
kts
Gust
kts
Height
m
Period
s
Dir
28/11:33pm NW 6 7 - - - - 10 Partly cloudy - 17.3 1010.3 0.0
28/11:30pm NW 6 8 - - - - 10 Partly cloudy - 17.3 1010.3 0.0
28/11:00pm NW 6 8 - - - - 10 Partly cloudy - 17.4 1010.6 0.0
28/10:59pm NW 6 8 - - - - 10 Partly cloudy - 17.4 1010.6 0.0
28/10:30pm NW 8 9 - - - - 10 Partly cloudy - 17.3 1011.0 0.0
28/10:26pm NW 7 9 - - - - 10 Partly cloudy - 17.2 1011.0 0.0
28/10:06pm NW 7 9 - - - - 10 Partly cloudy - 17.1 1011.0 0.0
28/10:05pm NW 7 9 - - - - 10 Partly cloudy - 17.1 1011.0 0.0
28/10:00pm NW 7 8 - - - - 10 Partly cloudy - 17.1 1011.0 0.0
28/09:48pm NW 7 9 - - - - 10 Partly cloudy - 17.3 1011.0 0.0
28/09:30pm WNW 7 8 - - - - 10 Partly cloudy - 17.3 1011.1 0.0
28/09:00pm WNW 8 10 - - - - 10 Cloudy - 17.4 1011.1 0.0
28/08:30pm WNW 9 11 - - - - 10 Partly cloudy - 17.5 1011.1 0.0
28/08:00pm WNW 10 12 - - - - 10 Partly cloudy - 17.6 1011.0 0.0
28/07:30pm NW 10 13 - - - - 10 - - 17.7 1010.9 0.0
28/07:00pm NW 10 12 - - - - 10 - - 18.1 1010.8 0.0
28/06:30pm NW 10 12 - - - - 10 - - 18.2 1010.9 0.0
28/06:00pm NW 11 15 - - - - 10 - - 18.7 1011.0 0.0
28/05:30pm NW 11 15 - - - - 10 - - 19.2 1010.9 0.0
28/05:00pm NW 11 13 - - - - 10 - - 19.3 1011.0 0.0
28/04:30pm NW 13 15 - - - - 10 - - 20.0 1011.1 0.0
28/04:00pm NNW 11 13 - - - - 10 - - 19.6 1011.2 0.0
28/03:30pm NNW 12 14 - - - - 10 - - 19.7 1011.6 0.0
28/03:00pm NNW 12 15 - - - - 10 Mostly clear - 20.1 1011.9 0.0
28/02:30pm NNW 12 14 - - - - 10 - - 19.8 1012.1 0.0
28/02:00pm NNW 11 13 - - - - 10 - - 19.7 1012.3 0.0
28/01:30pm NNW 10 12 - - - - 10 - - 19.7 1012.6 0.0
28/01:00pm NNW 11 12 - - - - 10 - - 19.3 1013.1 0.0
28/12:30pm NNW 10 13 - - - - 10 - - 19.6 1013.6 0.0
28/12:00pm NNW 10 12 - - - - 10 - - 19.2 1014.0 0.0
28/11:30am N 8 10 - - - - 10 - - 18.6 1014.1 0.0
28/11:00am N 8 9 - - - - 10 - - 18.8 1014.1 0.0
28/10:30am N 7 8 - - - - 10 - - 18.8 1014.2 0.0
28/10:00am NNW 6 7 - - - - 10 - - 18.7 1014.3 0.0
28/09:30am NW 4 7 - - - - 10 - - 18.1 1014.0 0.0
28/09:00am SSE 3 5 - - - - 10 Mostly clear - 17.5 1013.9 0.0
28/08:30am SSE 5 6 - - - - 10 - - 16.8 1013.9 0.0
28/08:28am SSE 5 6 - - - - 10 - - 16.6 1013.9 0.0
28/08:09am SSE 4 6 - - - - 4 - - 15.6 1014.0 0.0
28/08:00am SSE 5 6 - - - - 10 - - 14.9 1014.0 0.0
28/07:30am S 4 5 - - - - 10 Partly cloudy - 14.3 1013.8 0.0
28/07:00am S 6 7 - - - - 10 Cloudy - 14.2 1013.5 0.0
28/06:30am SSE 5 6 - - - - 10 Cloudy - 14.4 1013.4 0.0
28/06:00am S 6 7 - - - - 10 Cloudy - 14.6 1013.4 0.0
28/05:30am SSE 5 6 - - - - 10 Cloudy - 14.7 1013.2 0.0
28/05:00am SE 5 7 - - - - 10 Cloudy - 14.7 1013.3 0.0
28/04:30am SSE 6 8 - - - - 10 Partly cloudy - 14.8 1013.6 0.0
28/04:00am SSE 6 7 - - - - 10 Cloudy - 15.0 1013.7 0.0
28/03:30am SSW 7 8 - - - - 10 Partly cloudy - 15.2 1013.8 0.0
28/03:00am S 1 7 - - - - 10 Cloudy - 16.1 1014.0 0.0
28/02:30am SSW 2 4 - - - - 10 Cloudy - 15.7 1014.0 0.0
28/02:00am NW 3 5 - - - - 10 Partly cloudy - 15.9 1014.0 0.0
28/01:30am N 4 5 - - - - 10 Partly cloudy - 16.4 1014.0 0.0
28/01:00am NNW 4 5 - - - - 10 Partly cloudy - 15.9 1013.8 0.0
28/12:30am NNW 5 6 - - - - 10 Cloudy - 17.0 1013.9 0.0
28/12:00am NNW 6 9 - - - - 10 Cloudy - 16.9 1014.0 0.0
 
Date/Time
EDT
Wind Sea
Height
m
Swell Vis
km
Cloud Weather Temp
°C
Press
MSL
hPa
Rain since
9am
mm
Dir  Spd
kts
Gust
kts
Height
m
Period
s
Dir
27/11:39pm NNW 7 9 - - - - 10 Cloudy - 17.1 1014.1 0.0
27/11:30pm NW 8 10 - - - - 10 Cloudy - 17.1 1014.2 0.0
27/11:00pm NW 9 11 - - - - 10 Partly cloudy - 17.0 1014.2 0.0
27/10:41pm NW 8 9 - - - - 10 Partly cloudy - 16.9 1014.2 0.0
27/10:30pm WNW 7 9 - - - - 10 Partly cloudy - 16.7 1014.2 0.0
27/10:00pm NNE 4 6 - - - - 10 Partly cloudy - 15.6 1014.0 0.0
27/09:30pm SE 3 4 - - - - 10 Partly cloudy - 16.0 1013.8 0.0
27/09:00pm WSW 7 9 - - - - 10 Cloudy - 16.6 1013.8 0.0
27/08:30pm WNW 8 10 - - - - 10 Partly cloudy - 17.2 1013.9 0.0
27/08:00pm NW 8 10 - - - - 10 Partly cloudy - 17.1 1013.9 0.0
27/07:30pm NW 9 10 - - - - 10 Cloudy - 17.1 1013.8 0.0
27/07:00pm NW 8 11 - - - - 10 Partly cloudy - 17.2 1013.7 0.0
27/06:30pm NW 8 10 - - - - 10 - - 17.6 1013.6 0.0
27/06:00pm NW 8 11 - - - - 10 Mostly clear - 17.5 1013.6 0.0
27/05:30pm NNW 9 11 - - - - 10 - - 17.6 1013.5 0.0
27/05:00pm NNW 8 11 - - - - 10 - - 18.5 1013.6 0.0
27/04:30pm NNW 9 11 - - - - 10 - - 18.3 1013.7 0.0
27/04:00pm NW 8 10 - - - - 10 - - 18.5 1013.9 0.0
27/03:30pm NW 9 11 - - - - 10 - - 18.2 1014.1 0.0
27/03:00pm NW 8 10 - - - - 10 Mostly cloudy - 18.2 1014.3 0.0
27/02:30pm NW 6 9 - - - - 10 - - 18.2 1014.6 0.0
27/02:00pm NNW 6 8 - - - - 10 Partly cloudy - 18.2 1014.7 0.0
27/01:30pm NW 6 8 - - - - 10 Partly cloudy - 18.4 1014.8 0.0
27/01:00pm SSW 3 7 - - - - 10 Partly cloudy - 19.1 1014.9 0.0

Other formats

Comma delimited format used in spreadsheet applications
http://www.bom.gov.au/fwo/IDT60701/IDT60701.95960.axf

JavaScript Object Notation format (JSON) in row-major order
http://www.bom.gov.au/fwo/IDT60701/IDT60701.95960.json

Data quality

Most of these data are generated automatically and are frequently updated. Quality checks on data are not normally performed. It is possible for incorrect values to appear. Refer to information at About Latest Weather Observations and please check the disclaimer before using these data.